Impacts METAR Board
IDs:

KCLE - Cleveland/Hopkins In, OH, US

Updated at: 2000 UTC 25 Apr 2018
Potential Impact None Slight Moderate High
Time 25/08Z 25/09Z 25/10Z 25/11Z 25/12Z 25/13Z 25/14Z 25/15Z 25/16Z 25/17Z 25/18Z 25/19Z 25/20Z
Temp50 51 51 51 52 53 53 48 50 45 45 47 50
Dewpt49 50 50 50 50 51 51 47 49 44 43 45 45
Altim29.90 29.89 29.88 29.88 29.89 29.89 29.89 29.92 29.92 29.93 29.93 29.94 29.94
VIS1 1.75 1 1 0.5 3 6 0.5 0.5 6 9 3 10
CIG2 9 3 4 4 11 4 2 2 2 6 4 9
CoverOVCOVCOVCOVCOVCOVCOVCOVCOVCOVCOVCOVCOVC
FltCatLIFRIFRLIFRLIFRLIFRMVFRLIFRLIFRLIFRLIFRIFRLIFRIFR
WX-RA BR-RA BR-RA BR-RA BR-RA FG-RA BRBRFGBRBR--BR--
WDir350402036020340320310330330340340340
WSpd4 4 3 4 4 3 8 9 12 13 10 11 10
WGst-- -- -- -- -- -- -- -- -- -- -- -- --
Raw hourly METARs
KCLE 250758Z 35004KT 1SM -RA BR BKN002 OVC009 10/09 A2990 RMK AO2 P0000 T01000094
KCLE 250851Z 04004KT 1 3/4SM -RA BR SCT004 OVC009 11/10 A2989 RMK AO2 SLP122 P0001 60002 T01060100 56011
KCLE 250951Z 02003KT 1SM -RA BR OVC003 11/10 A2988 RMK AO2 SFC VIS 2 SLP119 P0000 T01060100
KCLE 251051Z 36004KT 1SM -RA BR OVC004 11/10 A2988 RMK AO2 SFC VIS 1 1/4 CIG 002V007 SLP120 P0001 T01060100
KCLE 251151Z 02004KT 1/2SM -RA FG OVC004 11/10 A2989 RMK AO2 TWR VIS 1 SLP122 P0000 60003 70030 T01110100 10117 20100 51003
KCLE 251259Z 34003KT 3SM -RA BR SCT004 BKN011 OVC021 12/11 A2989 RMK AO2 P0000 T01170106 $
KCLE 251351Z 32008KT 6SM BR BKN004 OVC011 12/11 A2989 RMK AO2 RAE36 SLP123 P0000 T01170106
KCLE 251451Z 31009KT 1/2SM FG OVC002 09/08 A2992 RMK AO2 SLP132 60001 T00890083 53009
KCLE 251551Z 33012KT 1/2SM BR OVC002 10/09 A2992 RMK AO2 SFC VIS 1 1/4 SLP133 T01000094
KCLE 251651Z 33013KT 6SM BR OVC002 07/07 A2993 RMK AO2 SLP138 T00720067 $
KCLE 251751Z 34010KT 9SM OVC006 07/06 A2993 RMK AO2 SLP138 60001 T00720061 10117 20067
KCLE 251851Z 34011KT 3SM BR OVC004 08/07 A2994 RMK AO2 SLP139 T00830072 $
KCLE 251951Z 34010KT 10SM SCT004 OVC009 10/07 A2994 RMK AO2 SLP140 T01000072 $



Page loaded:  20:23 UTC  |   01:23 PM Pacific  |   02:23 PM Mountain  |   03:23 PM Central  |   04:23 PM Eastern

 

ADVISORIES

FORECASTS

FORECASTS

OBSERVATIONS

USER TOOLS

ABOUT US